Data for 12/06/2014

Time Sea-Level Adjusted Pressure Absolute Pressure Temperature Relative Humidity Dew Point   
(mb) (inHg) (mb) (inHg) (C) (F) (%) (C) (F)
00:05 1023 30.21 852 25.16 2.8 37 60 -4.3 24.2
00:10 1023 30.21 852 25.16 2.7 36.8 59 -4.5 23.9
00:15 1023 30.21 852 25.16 2.7 36.8 59 -4.6 23.8
00:20 1023 30.21 852 25.16 2.8 37 58 -4.6 23.6
00:25 1023 30.21 852 25.16 2.9 37.2 57 -4.7 23.5
00:30 1023 30.21 852 25.16 3.1 37.6 56 -4.8 23.4
00:35 1023 30.21 852 25.16 3.2 37.8 56 -4.8 23.4
00:40 1023 30.21 852 25.16 3.1 37.6 56 -4.8 23.4
00:45 1023 30.21 852 25.16 3 37.5 57 -4.6 23.6
00:50 1023 30.21 852 25.16 2.9 37.3 57 -4.8 23.4
00:55 1023 30.21 852 25.16 2.6 36.7 59 -4.7 23.5
01:00 1023 30.21 852 25.16 2.5 36.5 58 -4.9 23.2
01:05 1023 30.21 852 25.16 2.6 36.7 58 -4.9 23.2
01:10 1023 30.21 852 25.16 2.7 36.8 57 -4.9 23.2
01:15 1023 30.21 852 25.16 2.7 36.9 57 -4.9 23.2
01:20 1023 30.21 852 25.16 2.7 36.9 58 -4.8 23.4
01:25 1023 30.21 852 25.16 2.7 36.9 58 -4.7 23.5
01:30 1023 30.21 852 25.16 2.6 36.7 58 -4.7 23.5
01:35 1023 30.21 852 25.16 2.6 36.8 58 -4.7 23.5
01:40 1023 30.21 852 25.16 2.4 36.4 59 -4.7 23.5
01:45 1023 30.21 852 25.16 2.3 36.1 60 -4.8 23.4
01:50 1023 30.21 852 25.16 2.3 36.2 59 -4.9 23.2
01:55 1023 30.21 852 25.16 2.3 36.1 59 -4.9 23.1
02:00 1023 30.21 852 25.16 2.4 36.3 58 -5 23
02:05 1023 30.21 852 25.16 2.5 36.5 59 -4.8 23.3
02:10 1023 30.21 852 25.16 2.3 36.1 59 -4.9 23.2
02:15 1023 30.21 852 25.16 2.3 36.2 59 -4.9 23.1
02:20 1023 30.21 852 25.16 2.4 36.4 59 -4.8 23.3
02:25 1023 30.21 852 25.16 2.4 36.4 59 -4.7 23.5
02:30 1023 30.21 852 25.16 2.4 36.3 59 -4.7 23.5
02:35 1023 30.21 852 25.16 2 35.6 61 -4.7 23.5
02:40 1023 30.21 852 25.16 1.7 35.1 60 -5.1 22.8
02:45 1023 30.21 852 25.16 2.1 35.9 59 -5.1 22.8
02:50 1023 30.21 852 25.16 2.2 36 60 -4.8 23.3
02:55 1023 30.21 852 25.16 2.2 36 59 -4.9 23.1
03:00 1023 30.21 852 25.16 2.2 36 59 -5.1 22.9
03:05 1023 30.21 852 25.16 2.5 36.5 58 -4.9 23.2
03:10 1023 30.21 852 25.16 2.4 36.3 58 -5.1 22.9
03:15 1023 30.21 852 25.16 2.4 36.4 58 -5.1 22.9
03:20 1023 30.21 852 25.16 2.5 36.5 57 -5.1 22.9
03:25 1023 30.21 852 25.16 2.5 36.6 58 -5 23
03:30 1023 30.21 852 25.16 2.4 36.3 59 -4.8 23.3
03:35 1023 30.21 852 25.16 1.9 35.5 62 -4.6 23.7
03:40 1023 30.21 852 25.16 1.5 34.7 63 -4.7 23.6
03:45 1022 30.18 852 25.16 1.6 34.9 63 -4.7 23.6
03:50 1022 30.18 852 25.16 1.9 35.4 63 -4.5 23.9
03:55 1022 30.18 852 25.16 2 35.6 63 -4.3 24.2
04:00 1022 30.18 851 25.13 1.8 35.3 63 -4.4 24
04:05 1022 30.18 851 25.13 1.8 35.2 63 -4.5 23.9
04:10 1022 30.18 851 25.13 1.8 35.3 63 -4.5 24
04:15 1022 30.18 851 25.13 2.2 35.9 62 -4.4 24
04:20 1022 30.18 851 25.13 2.4 36.4 60 -4.5 23.9
04:25 1022 30.18 851 25.13 2.9 37.2 59 -4.4 24.1
04:30 1022 30.18 851 25.13 3 37.3 59 -4.3 24.3
04:35 1022 30.18 851 25.13 2.8 37 60 -4.3 24.2
04:40 1022 30.18 851 25.13 2.2 36 62 -4.3 24.3
04:45 1022 30.18 851 25.13 2.2 35.9 61 -4.5 23.9
04:50 1022 30.18 851 25.13 2.7 36.9 59 -4.4 24.1
04:55 1022 30.18 851 25.13 2.7 36.9 60 -4.2 24.4
05:00 1022 30.18 851 25.13 2.8 37 60 -4.2 24.4
05:05 1022 30.18 851 25.13 3 37.4 60 -4 24.7
05:10 1022 30.18 851 25.13 3.1 37.6 59 -4.1 24.7
05:15 1022 30.18 851 25.13 3.2 37.8 59 -4 24.8
05:20 1022 30.18 851 25.13 3.2 37.7 59 -4.1 24.7
05:25 1022 30.18 851 25.13 3.2 37.8 59 -4 24.8
05:30 1022 30.18 851 25.13 3 37.3 60 -4 24.9
05:35 1022 30.18 851 25.13 2.7 36.8 62 -4 24.9
05:40 1022 30.18 851 25.13 2.7 36.9 62 -3.9 25
05:45 1022 30.18 851 25.13 2.6 36.6 63 -3.8 25.1
05:50 1022 30.18 851 25.13 2.2 36 64 -3.9 24.9
05:55 1021 30.15 851 25.13 1.8 35.3 66 -3.9 25
06:00 1021 30.15 851 25.13 1.2 34.2 69 -3.9 25
06:05 1021 30.15 851 25.13 0.8 33.4 70 -4.1 24.6
06:10 1021 30.15 851 25.13 0.9 33.6 69 -4.2 24.4
06:15 1021 30.15 851 25.13 1.2 34.2 67 -4.2 24.5
06:20 1021 30.15 851 25.13 1.5 34.7 67 -4.1 24.7
06:25 1021 30.15 851 25.13 1.6 34.9 66 -4 24.8
06:30 1021 30.15 850 25.1 1.5 34.8 67 -3.9 25
06:35 1021 30.15 851 25.13 1.2 34.2 69 -3.9 24.9
06:40 1021 30.15 851 25.13 1.1 33.9 69 -4 24.9
06:45 1021 30.15 851 25.13 1.8 35.3 65 -4.2 24.5
06:50 1021 30.15 851 25.13 1.9 35.5 67 -3.5 25.7
06:55 1021 30.15 851 25.13 1.4 34.4 68 -3.9 25
07:00 1021 30.15 851 25.13 0.9 33.7 70 -4 24.8
07:05 1021 30.15 851 25.13 1.1 34 69 -4 24.8
07:10 1021 30.15 850 25.1 1.2 34.2 68 -3.9 24.9
07:15 1021 30.15 851 25.13 1.3 34.3 71 -3.5 25.8
07:20 1021 30.15 850 25.1 1.7 35 66 -4.1 24.7
07:25 1021 30.15 850 25.1 1.6 34.9 68 -3.6 25.5
07:30 1021 30.15 850 25.1 1.5 34.7 69 -3.7 25.4
07:35 1021 30.15 851 25.13 1.2 34.2 70 -3.7 25.4
07:40 1021 30.15 851 25.13 1.2 34.2 71 -3.5 25.6
07:45 1021 30.15 851 25.13 1.6 34.8 68 -3.6 25.5
07:50 1021 30.15 851 25.13 1.9 35.4 66 -3.8 25.1
07:55 1021 30.15 850 25.1 2.4 36.4 64 -3.6 25.4
08:00 1021 30.15 850 25.1 2.3 36.2 65 -3.6 25.5
08:05 1021 30.15 850 25.1 1.6 34.9 68 -3.7 25.3
08:10 1021 30.15 850 25.1 1.9 35.4 67 -3.5 25.6
08:15 1021 30.15 850 25.1 1.7 35.1 67 -3.8 25.2
08:20 1021 30.15 850 25.1 1.9 35.4 67 -3.6 25.5
08:25 1021 30.15 850 25.1 1.8 35.3 67 -3.7 25.3
08:30 1021 30.15 850 25.1 2 35.5 67 -3.5 25.7
08:35 1021 30.15 850 25.1 1.8 35.3 65 -4 24.8
08:40 1021 30.15 850 25.1 2.8 37.1 62 -3.7 25.4
08:45 1021 30.15 850 25.1 3.2 37.7 62 -3.5 25.7
08:50 1021 30.15 850 25.1 3 37.3 63 -3.4 25.9
08:55 1021 30.15 850 25.1 2.7 36.9 64 -3.5 25.8
09:00 1021 30.15 850 25.1 2.2 36 66 -3.5 25.6
09:05 1021 30.15 850 25.1 2.2 36 66 -3.5 25.7
09:10 1021 30.15 850 25.1 2.1 35.9 65 -3.7 25.4
09:15 1021 30.15 850 25.1 2 35.6 66 -3.7 25.4
09:20 1021 30.15 850 25.1 2.4 36.3 65 -3.4 25.8
09:25 1021 30.15 850 25.1 2.3 36.1 65 -3.7 25.4
09:30 1021 30.15 850 25.1 2.2 36 66 -3.4 25.9
09:35 1021 30.15 850 25.1 2.5 36.5 65 -3.5 25.7
09:40 1021 30.15 850 25.1 2.4 36.4 65 -3.5 25.6
09:45 1021 30.15 850 25.1 2.8 37.1 65 -3.1 26.3
09:50 1021 30.15 850 25.1 2.7 36.8 65 -3.3 26
09:55 1021 30.15 850 25.1 2.6 36.7 65 -3.3 26
10:00 1021 30.15 850 25.1 2.8 37 64 -3.4 26
10:05 1021 30.15 850 25.1 3 37.4 63 -3.4 25.8
10:10 1021 30.15 850 25.1 3.2 37.7 62 -3.3 26
10:15 1021 30.15 850 25.1 3.3 37.9 62 -3.4 25.9
10:20 1021 30.15 850 25.1 3.4 38.2 61 -3.5 25.8
10:25 1021 30.15 850 25.1 3.7 38.7 59 -3.5 25.7
10:30 1021 30.15 850 25.1 4.1 39.4 58 -3.4 25.9
10:35 1021 30.15 850 25.1 4.3 39.7 58 -3.2 26.2
10:40 1021 30.15 850 25.1 4.3 39.7 57 -3.5 25.7
10:45 1021 30.15 850 25.1 4.6 40.3 57 -3.1 26.4
10:50 1021 30.15 850 25.1 4.4 40 58 -3.1 26.4
10:55 1021 30.15 850 25.1 4.3 39.8 59 -3 26.6
11:00 1021 30.15 850 25.1 4.4 39.9 57 -3.3 26.1
11:05 1021 30.15 850 25.1 4.8 40.7 57 -3 26.7
11:10 1021 30.15 850 25.1 4.9 40.7 57 -3 26.6
11:15 1021 30.15 850 25.1 5.2 41.3 56 -2.9 26.8
11:20 1021 30.15 850 25.1 5.2 41.4 56 -2.9 26.8
11:25 1021 30.15 850 25.1 5.4 41.8 54 -3 26.6
11:30 1021 30.15 850 25.1 5.5 41.9 57 -2.4 27.6
11:35 1021 30.15 850 25.1 5.3 41.6 54 -3.3 26.1
11:40 1021 30.15 850 25.1 5.9 42.6 53 -3 26.6
11:45 1021 30.15 850 25.1 6.3 43.3 52 -2.9 26.7
11:50 1021 30.15 850 25.1 6.4 43.5 51 -2.9 26.8
11:55 1020 30.12 850 25.1 6.6 43.9 51 -2.9 26.8
12:00 1020 30.12 850 25.1 7.2 44.9 49 -2.8 26.9
12:05 1020 30.12 849 25.07 7.3 45.1 50 -2.4 27.8
12:10 1020 30.12 849 25.07 7.3 45.1 50 -2.4 27.6
12:15 1020 30.12 849 25.07 7.8 46 48 -2.4 27.7
12:20 1020 30.12 849 25.07 8.4 47 47 -2.4 27.7
12:25 1020 30.12 849 25.07 8.9 47.9 46 -2 28.4
12:30 1020 30.12 849 25.07 9.1 48.5 46 -1.9 28.7
12:35 1020 30.12 849 25.07 9.4 48.8 44 -2.1 28.1
12:40 1020 30.12 849 25.07 9.8 49.6 44 -1.8 28.7
12:45 1020 30.12 849 25.07 9.8 49.7 46 -1.3 29.6
12:50 1020 30.12 849 25.07 9.4 48.9 49 -0.9 30.4
12:55 1020 30.12 849 25.07 9.1 48.3 50 -0.7 30.7
13:00 1020 30.12 849 25.07 8.5 47.4 54 -0.2 31.6
13:05 1020 30.12 849 25.07 7.5 45.4 54 -1.1 30
13:10 1020 30.12 849 25.07 7.8 46.1 53 -1.2 29.9
13:15 1020 30.12 849 25.07 8.2 46.7 52 -1.2 29.9
13:20 1020 30.12 849 25.07 8.2 46.7 52 -1.1 30
13:25 1020 30.12 849 25.07 8 46.3 51 -1.6 29.1
13:30 1020 30.12 849 25.07 8.3 46.9 48 -2 28.5
13:35 1020 30.12 849 25.07 8.7 47.6 47 -2 28.3
13:40 1020 30.12 849 25.07 8.7 47.7 47 -1.8 28.7
13:45 1020 30.12 849 25.07 8.9 48.1 47 -1.7 29
13:50 1020 30.12 849 25.07 8.8 47.8 48 -1.6 29.2
13:55 1019 30.09 849 25.07 8.2 46.7 50 -1.6 29.2
14:00 1019 30.09 848 25.04 7.8 46.1 51 -1.7 29
14:05 1019 30.09 848 25.04 8.1 46.5 50 -1.6 29.1
14:10 1019 30.09 848 25.04 8 46.4 52 -1.2 29.8
14:15 1019 30.09 848 25.04 7.4 45.2 54 -1.3 29.7
14:20 1019 30.09 848 25.04 7 44.6 56 -1.3 29.7
14:25 1019 30.09 848 25.04 7 44.5 55 -1.4 29.5
14:30 1019 30.09 848 25.04 7.1 44.7 55 -1.3 29.6
14:35 1019 30.09 848 25.04 7.3 45.1 54 -1.3 29.7
14:40 1019 30.09 848 25.04 7.6 45.7 53 -1.4 29.6
14:45 1019 30.09 848 25.04 8 46.4 52 -1.2 29.9
14:50 1019 30.09 848 25.04 8.1 46.6 53 -1 30.3
14:55 1019 30.09 848 25.04 8.2 46.8 52 -1 30.2
15:00 1019 30.09 848 25.04 8.1 46.6 53 -0.8 30.6
15:05 1019 30.09 848 25.04 7.8 46 55 -0.6 31
15:10 1019 30.09 848 25.04 7.9 46.2 55 -0.6 31
15:15 1019 30.09 848 25.04 7.9 46.2 52 -1.3 29.7
15:20 1019 30.09 848 25.04 8.1 46.6 56 -0 31.9
15:25 1019 30.09 848 25.04 7.5 45.5 57 -0.3 31.4
15:30 1019 30.09 848 25.04 7.1 44.7 58 -0.7 30.7
15:35 1019 30.09 848 25.04 7.2 45 57 -0.7 30.8
15:40 1019 30.09 848 25.04 7 44.6 58 -0.7 30.7
15:45 1019 30.09 848 25.04 7 44.5 58 -0.6 30.8
15:50 1019 30.09 848 25.04 7 44.6 59 -0.4 31.3
15:55 1019 30.09 848 25.04 7 44.6 59 -0.4 31.2
16:00 1019 30.09 848 25.04 6.9 44.4 60 -0.4 31.3
16:05 1019 30.09 848 25.04 6.7 44.1 57 -1.1 30
16:10 1019 30.09 848 25.04 6.7 44.1 59 -0.7 30.8
16:15 1019 30.09 848 25.04 6.8 44.2 58 -0.8 30.6
16:20 1019 30.09 848 25.04 6.8 44.2 57 -1 30.2
16:25 1019 30.09 848 25.04 6.8 44.2 58 -1 30.2
16:30 1019 30.09 848 25.04 6.9 44.4 57 -1 30.3
16:35 1019 30.09 848 25.04 7.1 44.8 53 -1.8 28.8
16:40 1019 30.09 848 25.04 7.3 45.1 55 -1 30.1
16:45 1019 30.09 848 25.04 7.2 45 56 -1 30.2
16:50 1019 30.09 848 25.04 7.3 45.1 53 -1.8 28.8
16:55 1019 30.09 848 25.04 7.8 46 53 -1.1 30
17:00 1019 30.09 848 25.04 7.6 45.8 53 -1.2 29.8
17:05 1019 30.09 848 25.04 7.4 45.3 55 -1 30.3
17:10 1019 30.09 848 25.04 7 44.7 56 -1.2 29.8
17:15 1019 30.09 848 25.04 7 44.5 55 -1.4 29.6
17:20 1019 30.09 848 25.04 6.9 44.5 55 -1.3 29.6
17:25 1019 30.09 848 25.04 6.8 44.3 57 -1 30.2
17:30 1019 30.09 848 25.04 6.7 44.1 57 -1.2 29.8
17:35 1019 30.09 848 25.04 6.6 43.9 59 -0.8 30.5
17:40 1019 30.09 848 25.04 6.4 43.6 58 -1.3 29.7
17:45 1019 30.09 848 25.04 6.7 44 55 -1.8 28.7
17:50 1019 30.09 848 25.04 6.9 44.5 53 -1.9 28.6
17:55 1019 30.09 848 25.04 7.2 45 51 -2.3 27.9
18:00 1019 30.09 848 25.04 7.5 45.6 50 -2.1 28.1
18:05 1019 30.09 848 25.04 7.7 45.8 50 -2.2 28.1
18:10 1019 30.09 848 25.04 7.8 46 48 -2.4 27.6
18:15 1019 30.09 848 25.04 7.9 46.3 51 -1.6 29.1
18:20 1019 30.09 848 25.04 7.8 46 51 -1.6 29.1
18:25 1019 30.09 849 25.07 7.7 45.8 53 -1.3 29.7
18:30 1020 30.12 849 25.07 7 44.5 57 -0.9 30.3
18:35 1020 30.12 849 25.07 6.3 43.3 60 -1 30.3
18:40 1020 30.12 849 25.07 5.8 42.5 65 -0.2 31.6
18:45 1020 30.12 849 25.07 5.1 41.1 71 0.3 32.5
18:50 1020 30.12 849 25.07 4.5 40.1 76 0.7 33.2
18:55 1020 30.12 849 25.07 4.3 39.7 78 0.7 33.3
19:00 1020 30.12 849 25.07 4.2 39.6 79 0.9 33.5
19:05 1020 30.12 850 25.1 4.4 40 79 1.1 34
19:10 1020 30.12 849 25.07 4.4 40 81 1.4 34.5
19:15 1020 30.12 850 25.1 4.4 39.9 81 1.4 34.5
19:20 1021 30.15 850 25.1 4.5 40 80 1.3 34.3
19:25 1021 30.15 850 25.1 4.6 40.4 79 1.4 34.4
19:30 1021 30.15 850 25.1 4.8 40.6 78 1.3 34.4
19:35 1020 30.12 850 25.1 4.9 40.8 76 1 33.9
19:40 1020 30.12 850 25.1 5.3 41.6 74 1 33.8
19:45 1020 30.12 850 25.1 5.8 42.4 71 0.9 33.6
19:50 1020 30.12 850 25.1 5.9 42.6 72 1.2 34.2
19:55 1021 30.15 850 25.1 5.5 41.9 75 1.5 34.7
20:00 1021 30.15 850 25.1 4.9 40.7 80 1.7 35.1
20:05 1020 30.12 850 25.1 4.7 40.5 77 1 33.8
20:10 1021 30.15 850 25.1 5.2 41.4 74 1 33.9
20:15 1021 30.15 850 25.1 5.6 42 74 1.2 34.2
20:20 1021 30.15 850 25.1 5.5 41.9 74 1.2 34.2
20:25 1021 30.15 850 25.1 5.3 41.5 75 1.1 34
20:30 1020 30.12 850 25.1 5.2 41.3 74 0.9 33.7
20:35 1020 30.12 850 25.1 5.3 41.5 69 0.1 32.3
20:40 1020 30.12 850 25.1 5.9 42.7 68 0.5 32.9
20:45 1020 30.12 850 25.1 5.9 42.6 73 1.5 34.7
20:50 1020 30.12 850 25.1 4.7 40.4 78 1.1 34
20:55 1021 30.15 850 25.1 4.5 40.2 76 0.8 33.4
21:00 1021 30.15 850 25.1 5 41 72 0.3 32.6
21:05 1021 30.15 850 25.1 5.8 42.4 68 0.4 32.7
21:10 1021 30.15 850 25.1 6.1 43 68 0.6 33.1
21:15 1021 30.15 850 25.1 6.1 42.9 68 0.6 33.1
21:20 1021 30.15 850 25.1 5.9 42.7 69 0.8 33.4
21:25 1021 30.15 850 25.1 5.9 42.6 68 0.5 32.8
21:30 1021 30.15 850 25.1 6 42.7 67 0.4 32.7
21:35 1021 30.15 850 25.1 5.8 42.5 70 0.8 33.5
21:40 1021 30.15 850 25.1 5.2 41.3 72 0.5 32.8
21:45 1021 30.15 850 25.1 5 41 71 0.3 32.5
21:50 1021 30.15 850 25.1 5.1 41.3 69 0 32
21:55 1021 30.15 850 25.1 5.3 41.5 68 -0.1 31.8
22:00 1021 30.15 850 25.1 5.4 41.7 67 -0.2 31.6
22:05 1021 30.15 850 25.1 5.6 42 66 -0.2 31.6
22:10 1021 30.15 850 25.1 5.5 41.9 67 -0.2 31.6
22:15 1021 30.15 850 25.1 5.6 42.1 65 -0.4 31.3
22:20 1021 30.15 850 25.1 5.9 42.6 65 -0.2 31.6
22:25 1021 30.15 850 25.1 5.7 42.2 65 -0.4 31.3
22:30 1021 30.15 850 25.1 5.7 42.2 65 -0.5 31.1
22:35 1021 30.15 850 25.1 5.6 42.1 64 -0.6 30.9
22:40 1021 30.15 850 25.1 5.5 41.9 65 -0.6 30.9
22:45 1021 30.15 850 25.1 5.3 41.5 66 -0.6 30.9
22:50 1021 30.15 850 25.1 5.1 41.1 66 -0.7 30.7
22:55 1021 30.15 851 25.13 4.8 40.6 65 -1.1 30
23:00 1021 30.15 851 25.13 4.6 40.2 68 -0.9 30.4
23:05 1021 30.15 851 25.13 4.4 39.9 68 -1.1 30.1
23:10 1021 30.15 851 25.13 4.5 40 68 -1 30.3
23:15 1021 30.15 851 25.13 4.5 40.2 66 -1.3 29.6
23:20 1022 30.18 851 25.13 4.6 40.3 64 -1.5 29.3
23:25 1022 30.18 851 25.13 4.6 40.2 65 -1.4 29.4
23:30 1022 30.18 851 25.13 4.4 40 64 -1.9 28.6
23:35 1022 30.18 851 25.13 4.5 40.1 61 -2.5 27.6
23:40 1022 30.18 851 25.13 4.6 40.3 59 -2.7 27.1
23:45 1022 30.18 851 25.13 4.6 40.3 56 -3.3 26
23:50 1021 30.15 851 25.13 4.8 40.6 54 -3.8 25.1
23:55 1022 30.18 851 25.13 5.1 41.1 52 -3.9 24.9
24:00 1022 30.18 851 25.13 5.1 41.2 51 -4.3 24.3